Time;durP1;ratioP1;P1;durP2;ratioP2;P2;SDS_P1;SDS_P2;PMS_P1;PMS_P2;Temp;Humidity;BMP_temperature;BMP_pressure;BME280_temperature;BME280_humidity;BME280_pressure;Samples;Min_cycle;Max_cycle;Signal;HPM_P1;HPM_P2
2022/10/24 00:02:25;;;;;;;;;;;18.20;99.20;;;;;;5114769;28;20045;-75
2022/10/24 00:04:52;;;;;;;;;;;18.30;99.30;;;;;;5114795;28;19914;-73
2022/10/24 00:07:18;;;;;;;;;;;18.30;99.20;;;;;;5114805;28;19916;-73
2022/10/24 00:09:45;;;;;;;;;;;18.30;99.20;;;;;;5113904;28;20289;-73
2022/10/24 00:12:12;;;;;;;;;;;18.20;99.30;;;;;;5114382;28;19908;-72
2022/10/24 00:14:38;;;;;;;;;;;18.20;99.20;;;;;;5114789;28;19908;-74
2022/10/24 00:17:06;;;;;;;;;;;18.20;99.20;;;;;;5114346;28;19915;-74
2022/10/24 00:19:32;;;;;;;;;;;18.20;99.30;;;;;;5114270;28;19907;-77
2022/10/24 00:21:59;;;;;;;;;;;18.20;99.30;;;;;;5114711;28;19908;-75
2022/10/24 00:24:25;;;;;;;;;;;18.20;99.30;;;;;;5114253;28;19907;-75
2022/10/24 00:26:52;;;;;;;;;;;18.20;99.30;;;;;;5114477;28;19957;-76
2022/10/24 00:29:19;;;;;;;;;;;18.20;99.30;;;;;;5114091;28;20006;-76
2022/10/24 00:31:45;;;;;;;;;;;18.30;99.30;;;;;;5114203;28;20006;-77
2022/10/24 00:34:12;;;;;;;;;;;18.30;99.30;;;;;;5113755;28;19907;-78
2022/10/24 00:36:39;;;;;;;;;;;18.30;99.30;;;;;;5113663;28;19961;-76
2022/10/24 00:39:05;;;;;;;;;;;18.30;99.30;;;;;;5114081;28;19912;-77
2022/10/24 00:41:36;;;;;;;;;;;18.30;99.30;;;;;;5113717;28;20296;-77
2022/10/24 00:44:15;;;;;;;;;;;18.30;99.30;;;;;;5113953;28;20022;-78
2022/10/24 00:46:42;;;;;;;;;;;18.30;99.30;;;;;;5113865;28;19914;-78
2022/10/24 00:49:11;;;;;;;;;;;18.30;99.30;;;;;;5113432;28;19953;-75
2022/10/24 00:51:38;;;;;;;;;;;18.30;99.30;;;;;;5112446;28;19919;-76
2022/10/24 00:54:05;;;;;;;;;;;18.30;99.30;;;;;;5113697;28;20289;-75
2022/10/24 00:56:34;;;;;;;;;;;18.30;99.30;;;;;;5112266;28;20354;-77
2022/10/24 00:59:01;;;;;;;;;;;18.30;99.30;;;;;;5113157;28;19911;-77
2022/10/24 01:01:27;;;;;;;;;;;18.30;99.30;;;;;;5113586;28;19939;-75
2022/10/24 01:03:54;;;;;;;;;;;18.30;99.40;;;;;;5113570;28;19908;-75
2022/10/24 01:06:39;;;;;;;;;;;18.40;99.40;;;;;;5113544;28;19908;-77
2022/10/24 01:09:17;;;;;;;;;;;18.40;99.40;;;;;;5113113;28;19912;-77
2022/10/24 01:11:47;;;;;;;;;;;18.30;99.40;;;;;;5113548;28;19908;-76
2022/10/24 01:14:19;;;;;;;;;;;18.40;99.40;;;;;;5113160;28;19970;-76
2022/10/24 01:16:46;;;;;;;;;;;18.40;99.40;;;;;;5113303;27;20226;-76
2022/10/24 01:19:31;;;;;;;;;;;18.40;99.40;;;;;;5113106;28;19920;-78
2022/10/24 01:21:58;;;;;;;;;;;18.40;99.40;;;;;;5113395;28;20281;-77
2022/10/24 01:24:31;;;;;;;;;;;18.50;99.40;;;;;;5111914;28;20338;-75
2022/10/24 01:26:57;;;;;;;;;;;18.50;99.40;;;;;;5112098;28;19907;-77
2022/10/24 01:29:36;;;;;;;;;;;18.50;99.40;;;;;;5113039;28;19976;-77
2022/10/24 01:32:25;;;;;;;;;;;18.50;99.40;;;;;;5113175;28;19973;-78
2022/10/24 01:34:55;;;;;;;;;;;18.50;99.40;;;;;;5109663;28;19915;-78
2022/10/24 01:37:27;;;;;;;;;;;18.60;99.40;;;;;;5113602;28;19958;-78
2022/10/24 01:39:55;;;;;;;;;;;18.50;99.40;;;;;;5111295;28;19908;-78
2022/10/24 01:42:22;;;;;;;;;;;18.60;99.50;;;;;;5112918;28;19954;-78
2022/10/24 01:44:49;;;;;;;;;;;18.70;99.50;;;;;;5111641;28;19908;-79
2022/10/24 01:47:23;;;;;;;;;;;18.70;99.40;;;;;;5111739;28;20390;-78
2022/10/24 01:49:52;;;;;;;;;;;18.50;99.40;;;;;;5111319;28;20014;-79
2022/10/24 01:52:18;;;;;;;;;;;18.60;99.40;;;;;;5111656;28;19908;-78
2022/10/24 01:54:46;;;;;;;;;;;18.60;99.40;;;;;;5111414;28;19915;-80
2022/10/24 01:57:13;;;;;;;;;;;18.60;99.40;;;;;;5111435;28;19986;-80
2022/10/24 01:59:44;;;;;;;;;;;18.70;99.40;;;;;;5112718;28;19961;-80
2022/10/24 02:02:30;;;;;;;;;;;18.70;99.40;;;;;;5112759;28;19914;-79
2022/10/24 02:04:59;;;;;;;;;;;18.80;99.40;;;;;;5113005;28;19912;-80
2022/10/24 02:07:26;;;;;;;;;;;18.80;99.40;;;;;;5111325;28;19907;-80
2022/10/24 02:09:53;;;;;;;;;;;18.80;99.40;;;;;;5112476;28;20463;-80
2022/10/24 02:12:20;;;;;;;;;;;18.90;99.40;;;;;;5111483;28;19911;-80
2022/10/24 02:14:51;;;;;;;;;;;18.90;99.40;;;;;;5111712;28;20002;-81
2022/10/24 02:17:17;;;;;;;;;;;19.00;99.40;;;;;;5111324;28;19957;-80
2022/10/24 02:19:44;;;;;;;;;;;19.10;99.50;;;;;;5110990;28;20414;-80
2022/10/24 02:22:16;;;;;;;;;;;19.20;99.40;;;;;;5112491;28;19911;-80
2022/10/24 02:24:51;;;;;;;;;;;19.20;99.40;;;;;;5084225;28;20002;-80
2022/10/24 02:27:20;;;;;;;;;;;19.20;99.30;;;;;;5111328;28;19908;-80
2022/10/24 02:30:16;;;;;;;;;;;19.20;99.40;;;;;;5111149;28;19960;-80
2022/10/24 02:32:43;;;;;;;;;;;19.30;99.40;;;;;;5110411;28;19965;-79
2022/10/24 02:35:10;;;;;;;;;;;19.30;99.40;;;;;;5115245;28;19916;-80
2022/10/24 02:37:38;;;;;;;;;;;19.30;99.40;;;;;;5115175;28;19908;-79
2022/10/24 02:40:05;;;;;;;;;;;19.30;99.40;;;;;;5115127;28;19952;-79
2022/10/24 02:42:32;;;;;;;;;;;19.30;99.30;;;;;;5115324;28;19916;-79
2022/10/24 02:44:58;;;;;;;;;;;19.40;99.40;;;;;;5097811;28;20285;-79
2022/10/24 02:47:25;;;;;;;;;;;19.40;99.40;;;;;;5115119;28;19912;-79
2022/10/24 02:49:52;;;;;;;;;;;19.30;99.30;;;;;;5115944;28;19912;-79
2022/10/24 02:52:18;;;;;;;;;;;19.30;99.30;;;;;;5115111;28;19908;-79
2022/10/24 02:54:45;;;;;;;;;;;19.30;99.30;;;;;;5114856;28;19908;-80
2022/10/24 02:57:13;;;;;;;;;;;19.40;99.30;;;;;;5114725;28;20370;-79
2022/10/24 02:59:40;;;;;;;;;;;19.40;99.30;;;;;;5104519;28;20362;-80
2022/10/24 03:02:07;;;;;;;;;;;19.30;99.30;;;;;;5111905;28;19908;-81
2022/10/24 03:04:33;;;;;;;;;;;19.30;99.20;;;;;;5116272;28;19958;-80
2022/10/24 03:07:00;;;;;;;;;;;19.40;99.30;;;;;;5114704;28;19912;-81
2022/10/24 03:09:26;;;;;;;;;;;19.30;99.30;;;;;;5115693;28;19919;-80
2022/10/24 03:11:53;;;;;;;;;;;19.40;99.30;;;;;;5115657;28;19919;-80
2022/10/24 03:14:20;;;;;;;;;;;19.40;99.30;;;;;;5115540;28;19958;-80
2022/10/24 03:16:46;;;;;;;;;;;19.40;99.30;;;;;;5115895;28;19961;-80
2022/10/24 03:19:13;;;;;;;;;;;19.40;99.30;;;;;;5115593;28;19916;-80
2022/10/24 03:21:40;;;;;;;;;;;19.40;99.40;;;;;;5115858;28;19912;-80
2022/10/24 03:24:07;;;;;;;;;;;19.40;99.40;;;;;;5089878;28;19912;-80
2022/10/24 03:26:33;;;;;;;;;;;19.40;99.40;;;;;;5080652;28;20368;-80
2022/10/24 03:29:00;;;;;;;;;;;19.40;99.40;;;;;;5099945;28;20232;-80
2022/10/24 03:31:27;;;;;;;;;;;19.50;99.40;;;;;;5114633;28;19988;-80
2022/10/24 03:33:53;;;;;;;;;;;19.50;99.40;;;;;;5115098;28;20388;-80
2022/10/24 03:36:20;;;;;;;;;;;19.50;99.40;;;;;;5110590;28;19937;-80
2022/10/24 03:38:46;;;;;;;;;;;19.50;99.40;;;;;;5115213;28;19919;-80
2022/10/24 03:41:13;;;;;;;;;;;19.50;99.40;;;;;;5100019;28;19923;-81
2022/10/24 03:43:39;;;;;;;;;;;19.60;99.40;;;;;;5095757;28;20365;-83
2022/10/24 03:46:06;;;;;;;;;;;19.60;99.40;;;;;;5112585;28;19911;-84
2022/10/24 03:48:33;;;;;;;;;;;19.60;99.40;;;;;;5113005;28;19919;-82
2022/10/24 03:50:59;;;;;;;;;;;19.50;99.40;;;;;;5089713;27;20340;-81
2022/10/24 03:53:26;;;;;;;;;;;19.50;99.40;;;;;;5109276;28;19918;-80
2022/10/24 03:55:52;;;;;;;;;;;19.50;99.40;;;;;;5112314;28;19912;-83
2022/10/24 03:58:19;;;;;;;;;;;19.50;99.40;;;;;;5100299;28;20318;-85
2022/10/24 04:00:45;;;;;;;;;;;19.50;99.40;;;;;;5080781;28;19973;-81
2022/10/24 04:03:12;;;;;;;;;;;19.50;99.40;;;;;;5094246;28;20328;-85
2022/10/24 04:05:39;;;;;;;;;;;19.50;99.40;;;;;;5112433;28;20047;-83
2022/10/24 04:08:06;;;;;;;;;;;19.50;99.40;;;;;;5112161;28;19923;-78
2022/10/24 04:10:32;;;;;;;;;;;19.40;99.40;;;;;;5094928;28;20383;-80
2022/10/24 04:12:59;;;;;;;;;;;19.50;99.40;;;;;;5111861;28;19926;-80
2022/10/24 04:15:25;;;;;;;;;;;19.40;99.40;;;;;;5112016;28;20427;-84
2022/10/24 04:17:52;;;;;;;;;;;19.50;99.40;;;;;;5111722;28;19912;-81
2022/10/24 04:20:21;;;;;;;;;;;19.50;99.40;;;;;;5108735;28;19950;-83
2022/10/24 04:22:47;;;;;;;;;;;19.50;99.40;;;;;;5109966;28;19908;-84
2022/10/24 04:25:14;;;;;;;;;;;19.50;99.40;;;;;;5110713;28;20010;-82
2022/10/24 04:27:41;;;;;;;;;;;19.50;99.40;;;;;;5111792;28;19994;-82
2022/10/24 04:30:08;;;;;;;;;;;19.50;99.40;;;;;;5110149;28;20267;-79
2022/10/24 04:32:35;;;;;;;;;;;19.40;99.40;;;;;;5103919;28;20293;-79
2022/10/24 04:35:01;;;;;;;;;;;19.50;99.40;;;;;;5109197;28;19927;-82
2022/10/24 04:37:28;;;;;;;;;;;19.40;99.40;;;;;;5111127;28;19908;-79
2022/10/24 04:39:55;;;;;;;;;;;19.50;99.40;;;;;;5110499;28;19947;-79
2022/10/24 04:42:22;;;;;;;;;;;19.40;99.40;;;;;;5102623;28;19947;-81
2022/10/24 04:44:48;;;;;;;;;;;19.40;99.40;;;;;;5111271;28;20250;-80
2022/10/24 04:47:15;;;;;;;;;;;19.30;99.40;;;;;;5111214;28;19970;-79
2022/10/24 04:49:41;;;;;;;;;;;19.30;99.40;;;;;;5109779;28;19920;-80
2022/10/24 04:52:08;;;;;;;;;;;19.30;99.40;;;;;;5100200;28;19916;-79
2022/10/24 04:54:35;;;;;;;;;;;19.30;99.40;;;;;;5110045;28;19907;-79
2022/10/24 04:57:01;;;;;;;;;;;19.30;99.40;;;;;;5111316;28;19912;-82
2022/10/24 04:59:28;;;;;;;;;;;19.30;99.40;;;;;;5110984;28;19935;-86
2022/10/24 05:01:54;;;;;;;;;;;19.40;99.50;;;;;;5095094;28;19967;-84
2022/10/24 05:04:21;;;;;;;;;;;19.40;99.40;;;;;;5110651;28;19929;-83
2022/10/24 05:06:48;;;;;;;;;;;19.40;99.40;;;;;;5104526;28;19912;-83
2022/10/24 05:09:14;;;;;;;;;;;19.40;99.40;;;;;;5109158;28;19912;-83
2022/10/24 05:11:41;;;;;;;;;;;19.50;99.40;;;;;;5108149;28;20336;-83
2022/10/24 05:14:07;;;;;;;;;;;19.50;99.40;;;;;;5083672;28;19924;-83
2022/10/24 05:16:34;;;;;;;;;;;19.60;99.40;;;;;;5110542;28;19965;-83
2022/10/24 05:19:00;;;;;;;;;;;19.60;99.40;;;;;;5110167;28;19935;-83
2022/10/24 05:21:27;;;;;;;;;;;19.60;99.40;;;;;;5106244;28;20021;-82
2022/10/24 05:23:54;;;;;;;;;;;19.70;99.40;;;;;;5092210;28;20014;-75
2022/10/24 05:26:20;;;;;;;;;;;19.70;99.40;;;;;;5110067;28;19912;-75
2022/10/24 05:28:47;;;;;;;;;;;19.60;99.40;;;;;;5109951;28;19970;-81
2022/10/24 05:31:13;;;;;;;;;;;19.60;99.30;;;;;;5102237;28;19968;-78
2022/10/24 05:33:40;;;;;;;;;;;19.70;99.40;;;;;;5110447;28;19920;-80
2022/10/24 05:36:07;;;;;;;;;;;19.70;99.40;;;;;;5110236;28;20006;-77
2022/10/24 05:38:33;;;;;;;;;;;19.70;99.40;;;;;;5110342;28;19968;-77
2022/10/24 05:41:00;;;;;;;;;;;19.60;99.40;;;;;;5091113;28;19916;-79
2022/10/24 05:43:26;;;;;;;;;;;19.60;99.40;;;;;;5110355;28;20048;-79
2022/10/24 05:45:53;;;;;;;;;;;19.70;99.40;;;;;;5097996;28;19919;-78
2022/10/24 05:48:20;;;;;;;;;;;19.70;99.40;;;;;;5077504;28;20011;-85
2022/10/24 05:50:46;;;;;;;;;;;19.70;99.40;;;;;;5091681;28;19920;-83
2022/10/24 05:53:13;;;;;;;;;;;19.60;99.40;;;;;;5106511;28;19920;-83
2022/10/24 05:55:40;;;;;;;;;;;19.60;99.40;;;;;;5077815;28;19921;-87
2022/10/24 05:58:06;;;;;;;;;;;19.70;99.40;;;;;;5104815;28;19918;-86
2022/10/24 06:00:33;;;;;;;;;;;19.70;99.40;;;;;;5091915;28;19911;-85
2022/10/24 06:03:00;;;;;;;;;;;19.70;99.40;;;;;;5103844;28;19916;-90
2022/10/24 06:05:26;;;;;;;;;;;19.80;99.40;;;;;;5104949;28;19918;-77
2022/10/24 06:07:53;;;;;;;;;;;19.80;99.40;;;;;;5109742;28;19912;-77
2022/10/24 06:10:20;;;;;;;;;;;19.80;99.30;;;;;;5109577;28;19920;-77
2022/10/24 06:12:46;;;;;;;;;;;19.80;99.30;;;;;;5100813;28;19948;-85
2022/10/24 06:15:13;;;;;;;;;;;19.80;99.30;;;;;;5093563;28;19908;-83
2022/10/24 06:17:39;;;;;;;;;;;19.80;99.30;;;;;;5108361;28;20002;-82
2022/10/24 06:20:06;;;;;;;;;;;19.80;99.30;;;;;;5110010;28;20385;-80
2022/10/24 06:22:33;;;;;;;;;;;19.80;99.30;;;;;;5107706;28;20342;-79
2022/10/24 06:25:00;;;;;;;;;;;19.80;99.30;;;;;;5098092;28;19920;-77
2022/10/24 06:27:27;;;;;;;;;;;19.80;99.30;;;;;;5108441;28;19936;-79
2022/10/24 06:29:53;;;;;;;;;;;19.80;99.30;;;;;;5109436;28;19998;-79
2022/10/24 06:32:20;;;;;;;;;;;19.70;99.20;;;;;;5107774;28;20004;-80
2022/10/24 06:34:46;;;;;;;;;;;19.70;99.20;;;;;;5094559;28;20313;-82
2022/10/24 06:37:13;;;;;;;;;;;19.70;99.20;;;;;;5109633;28;19915;-80
2022/10/24 06:39:40;;;;;;;;;;;19.70;99.30;;;;;;5109628;28;19916;-79
2022/10/24 06:42:06;;;;;;;;;;;19.70;99.30;;;;;;5091279;28;19958;-81
2022/10/24 06:44:33;;;;;;;;;;;19.70;99.30;;;;;;5098440;28;19974;-80
2022/10/24 06:46:59;;;;;;;;;;;19.70;99.30;;;;;;5084487;28;19912;-81
2022/10/24 06:49:26;;;;;;;;;;;19.70;99.30;;;;;;5091413;28;20074;-81
2022/10/24 06:51:53;;;;;;;;;;;19.70;99.30;;;;;;5089480;28;19934;-81
2022/10/24 06:54:19;;;;;;;;;;;19.70;99.30;;;;;;5088578;28;19912;-81
2022/10/24 06:56:46;;;;;;;;;;;19.70;99.30;;;;;;5091676;28;19919;-81
2022/10/24 06:59:14;;;;;;;;;;;19.70;99.30;;;;;;5096732;28;19915;-81
2022/10/24 07:01:40;;;;;;;;;;;19.60;99.20;;;;;;5096491;28;19919;-81
2022/10/24 07:04:07;;;;;;;;;;;19.60;99.20;;;;;;5087097;28;19974;-82
2022/10/24 07:06:34;;;;;;;;;;;19.50;99.10;;;;;;5089746;28;19908;-79
2022/10/24 07:09:00;;;;;;;;;;;19.40;99.20;;;;;;5088767;28;20641;-81
2022/10/24 07:11:27;;;;;;;;;;;19.30;99.10;;;;;;5089448;28;20305;-81
2022/10/24 07:13:54;;;;;;;;;;;19.30;99.10;;;;;;5092612;28;19911;-82
2022/10/24 07:16:20;;;;;;;;;;;19.10;99.10;;;;;;5091441;28;19954;-80
2022/10/24 07:18:47;;;;;;;;;;;19.00;99.10;;;;;;5097387;28;20010;-78
2022/10/24 07:21:14;;;;;;;;;;;19.00;99.10;;;;;;5092579;28;19916;-80
2022/10/24 07:23:41;;;;;;;;;;;19.00;99.10;;;;;;5091073;28;19976;-82
2022/10/24 07:26:08;;;;;;;;;;;19.00;99.10;;;;;;5090280;28;20006;-80
2022/10/24 07:28:35;;;;;;;;;;;19.00;99.10;;;;;;5091936;28;19915;-81
2022/10/24 07:31:01;;;;;;;;;;;18.90;99.10;;;;;;5091952;28;20423;-82
2022/10/24 07:33:28;;;;;;;;;;;18.90;99.00;;;;;;5091323;28;19951;-80
2022/10/24 07:35:55;;;;;;;;;;;18.90;99.10;;;;;;5091282;28;19920;-80
2022/10/24 07:38:21;;;;;;;;;;;18.90;99.00;;;;;;5092043;28;19912;-79
2022/10/24 07:40:48;;;;;;;;;;;18.90;99.10;;;;;;5086521;28;19913;-80
2022/10/24 07:43:15;;;;;;;;;;;18.90;99.10;;;;;;5087050;28;20274;-80
2022/10/24 07:45:41;;;;;;;;;;;19.00;99.10;;;;;;5085310;28;20354;-80
2022/10/24 07:48:08;;;;;;;;;;;19.00;99.10;;;;;;5091151;28;19928;-79
2022/10/24 07:50:35;;;;;;;;;;;19.00;99.20;;;;;;5083755;28;19955;-79
2022/10/24 07:53:01;;;;;;;;;;;19.00;99.10;;;;;;5088250;28;19946;-79
2022/10/24 07:55:28;;;;;;;;;;;19.00;99.10;;;;;;5089778;28;19915;-79
2022/10/24 07:57:55;;;;;;;;;;;19.00;99.10;;;;;;5088249;28;19920;-83
2022/10/24 08:00:21;;;;;;;;;;;18.90;99.10;;;;;;5091029;28;20035;-77
2022/10/24 08:02:48;;;;;;;;;;;18.90;99.10;;;;;;5096261;27;19912;-84
2022/10/24 08:05:14;;;;;;;;;;;18.90;99.10;;;;;;5091152;28;19918;-85
2022/10/24 08:07:41;;;;;;;;;;;18.90;99.10;;;;;;5083726;28;20362;-74
2022/10/24 08:10:10;;;;;;;;;;;18.90;99.10;;;;;;5088672;28;19924;-79
2022/10/24 08:12:37;;;;;;;;;;;18.80;99.00;;;;;;5101775;28;19916;-81
2022/10/24 08:15:04;;;;;;;;;;;18.80;99.00;;;;;;5101372;28;19961;-74
2022/10/24 08:17:30;;;;;;;;;;;18.80;99.10;;;;;;5109077;28;20005;-78
2022/10/24 08:19:57;;;;;;;;;;;18.80;99.10;;;;;;5100795;28;19915;-80
2022/10/24 08:22:23;;;;;;;;;;;18.90;99.10;;;;;;5104322;28;19908;-74
2022/10/24 08:24:50;;;;;;;;;;;19.00;99.20;;;;;;5095152;28;19942;-75
2022/10/24 08:27:16;;;;;;;;;;;18.80;99.10;;;;;;5097004;28;20057;-78
2022/10/24 08:29:43;;;;;;;;;;;18.90;99.10;;;;;;5090953;28;19931;-75
2022/10/24 08:32:10;;;;;;;;;;;18.90;99.10;;;;;;5088699;28;19974;-76
2022/10/24 08:34:37;;;;;;;;;;;18.80;99.00;;;;;;5090195;28;20320;-75
2022/10/24 08:37:03;;;;;;;;;;;18.80;99.10;;;;;;5100801;28;19911;-75
2022/10/24 08:39:30;;;;;;;;;;;18.80;99.00;;;;;;5098005;28;20011;-77
2022/10/24 08:41:57;;;;;;;;;;;18.80;99.10;;;;;;5102312;28;19998;-75
2022/10/24 08:44:40;;;;;;;;;;;18.90;99.10;;;;;;5093451;28;19920;-78
2022/10/24 08:47:25;;;;;;;;;;;18.90;99.10;;;;;;5099020;28;19916;-75
2022/10/24 08:49:54;;;;;;;;;;;18.90;99.10;;;;;;5101707;28;19927;-77
2022/10/24 08:52:23;;;;;;;;;;;18.90;99.10;;;;;;5084334;28;20007;-78
2022/10/24 08:54:50;;;;;;;;;;;19.00;99.10;;;;;;5085002;28;19916;-77
2022/10/24 08:57:19;;;;;;;;;;;18.90;99.00;;;;;;5065353;28;19920;-78
2022/10/24 08:59:46;;;;;;;;;;;18.80;99.00;;;;;;5091429;28;19918;-77
2022/10/24 09:02:15;;;;;;;;;;;18.80;99.00;;;;;;5105909;28;19916;-78
2022/10/24 09:04:55;;;;;;;;;;;18.80;98.90;;;;;;5088985;28;19957;-77
2022/10/24 09:07:22;;;;;;;;;;;18.80;99.00;;;;;;5082689;28;19923;-77
2022/10/24 09:09:50;;;;;;;;;;;18.80;99.10;;;;;;5081542;28;20271;-77
2022/10/24 09:12:17;;;;;;;;;;;18.70;99.00;;;;;;5086637;28;19977;-77
2022/10/24 09:14:45;;;;;;;;;;;18.80;99.10;;;;;;5077694;28;20374;-77
2022/10/24 09:17:22;;;;;;;;;;;18.80;99.00;;;;;;5087429;28;19916;-76
2022/10/24 09:19:57;;;;;;;;;;;18.80;99.00;;;;;;5080432;28;20345;-75
2022/10/24 09:22:24;;;;;;;;;;;18.80;99.00;;;;;;5080234;28;19913;-72
2022/10/24 09:24:53;;;;;;;;;;;18.80;99.00;;;;;;5088745;28;19920;-72
2022/10/24 09:27:21;;;;;;;;;;;18.90;99.00;;;;;;5088762;28;19938;-74
2022/10/24 09:29:48;;;;;;;;;;;18.80;98.90;;;;;;5078029;28;20034;-73
2022/10/24 09:32:18;;;;;;;;;;;18.80;98.90;;;;;;5087072;28;19924;-71
2022/10/24 09:34:45;;;;;;;;;;;18.80;98.90;;;;;;5089290;28;19916;-72
2022/10/24 09:37:30;;;;;;;;;;;18.80;98.90;;;;;;5079026;28;19916;-71
2022/10/24 11:45:52;;;;;;;;;;;18.50;98.70;;;;;;5102647;28;19945;-75
2022/10/24 11:48:27;;;;;;;;;;;18.50;98.70;;;;;;5113649;28;19999;-75
2022/10/24 11:51:14;;;;;;;;;;;18.40;98.70;;;;;;5113727;28;19920;-75
2022/10/24 11:53:49;;;;;;;;;;;18.50;98.70;;;;;;5100650;28;19907;-75
2022/10/24 11:56:16;;;;;;;;;;;18.50;98.70;;;;;;5096966;28;19908;-75
2022/10/24 11:58:52;;;;;;;;;;;18.50;98.70;;;;;;5116106;27;19962;-74
2022/10/24 12:01:48;;;;;;;;;;;18.50;98.70;;;;;;5094197;28;19919;-74
2022/10/24 12:04:33;;;;;;;;;;;18.50;98.70;;;;;;5090551;28;19928;-74
2022/10/24 12:07:05;;;;;;;;;;;18.60;98.80;;;;;;5127259;27;19911;-74
2022/10/24 12:09:32;;;;;;;;;;;18.50;98.70;;;;;;5133130;27;19960;-74
2022/10/24 12:12:08;;;;;;;;;;;18.60;98.70;;;;;;5125876;27;20010;-74
2022/10/24 12:14:57;;;;;;;;;;;18.50;98.70;;;;;;5105755;27;19957;-74
2022/10/24 12:17:36;;;;;;;;;;;18.50;98.60;;;;;;5127368;27;20438;-74
2022/10/24 12:20:04;;;;;;;;;;;18.50;98.60;;;;;;5119220;27;19937;-74
2022/10/24 12:22:34;;;;;;;;;;;18.50;98.60;;;;;;5112497;27;19914;-75
2022/10/24 12:25:24;;;;;;;;;;;18.50;98.60;;;;;;5112936;27;19972;-75
2022/10/24 12:28:20;;;;;;;;;;;18.50;98.60;;;;;;5129010;27;20285;-74
2022/10/24 12:31:05;;;;;;;;;;;18.50;98.60;;;;;;5106649;27;19970;-74
2022/10/24 12:33:31;;;;;;;;;;;18.50;98.50;;;;;;5110920;27;19911;-75
2022/10/24 12:35:58;;;;;;;;;;;18.50;98.50;;;;;;5134780;27;19911;-74
2022/10/24 12:38:27;;;;;;;;;;;18.50;98.50;;;;;;5134924;27;19965;-74
2022/10/24 12:40:54;;;;;;;;;;;18.50;98.50;;;;;;5123717;27;20003;-74
2022/10/24 12:43:27;;;;;;;;;;;18.50;98.50;;;;;;5133347;27;19918;-74
2022/10/24 13:01:03;;;;;;;;;;;18.50;98.40;;;;;;5105773;27;20321;-74
2022/10/24 13:03:49;;;;;;;;;;;18.40;98.30;;;;;;5111681;28;19977;-74
2022/10/24 13:06:21;;;;;;;;;;;18.30;98.30;;;;;;5091771;27;20011;-75
2022/10/24 13:09:06;;;;;;;;;;;18.40;98.40;;;;;;5115828;27;19908;-75
2022/10/24 13:11:39;;;;;;;;;;;18.40;98.40;;;;;;5126175;27;19919;-74
2022/10/24 13:14:33;;;;;;;;;;;18.40;98.30;;;;;;5115547;27;19907;-74
2022/10/24 13:17:13;;;;;;;;;;;18.30;98.30;;;;;;5117536;27;20011;-74
2022/10/24 13:19:40;;;;;;;;;;;18.30;98.30;;;;;;5087157;27;19914;-74
2022/10/24 13:22:24;;;;;;;;;;;18.30;98.20;;;;;;5126325;27;20285;-74
2022/10/24 13:24:51;;;;;;;;;;;18.30;98.30;;;;;;5113214;27;19912;-74
2022/10/24 13:27:25;;;;;;;;;;;18.30;98.30;;;;;;5115357;27;20002;-74
2022/10/24 13:29:51;;;;;;;;;;;18.30;98.20;;;;;;5114067;27;19967;-74
2022/10/24 13:32:18;;;;;;;;;;;18.30;98.20;;;;;;5125939;27;19911;-74
2022/10/24 13:34:54;;;;;;;;;;;18.30;98.20;;;;;;5133446;27;19907;-74
2022/10/24 13:37:23;;;;;;;;;;;18.30;98.20;;;;;;5131313;27;20389;-74
2022/10/24 13:39:51;;;;;;;;;;;18.30;98.10;;;;;;5129845;27;19995;-73
2022/10/24 13:42:23;;;;;;;;;;;18.30;98.20;;;;;;5105569;27;20292;-74
2022/10/24 13:44:50;;;;;;;;;;;18.30;98.20;;;;;;5129815;27;19916;-74
2022/10/24 13:47:33;;;;;;;;;;;18.30;98.20;;;;;;5115211;27;19918;-74
2022/10/24 13:50:06;;;;;;;;;;;18.40;98.20;;;;;;5098051;28;20286;-73
2022/10/24 13:52:43;;;;;;;;;;;18.30;98.20;;;;;;5109151;27;20305;-73
2022/10/24 13:55:10;;;;;;;;;;;18.30;98.20;;;;;;5130541;27;19913;-74
2022/10/24 13:57:46;;;;;;;;;;;18.30;98.20;;;;;;5133145;27;19908;-74
2022/10/24 14:00:18;;;;;;;;;;;18.30;98.10;;;;;;5107211;28;19935;-74
2022/10/24 14:02:44;;;;;;;;;;;18.30;98.10;;;;;;5089744;28;19918;-74
2022/10/24 14:05:18;;;;;;;;;;;18.30;98.10;;;;;;5115129;28;20406;-74
2022/10/24 14:07:45;;;;;;;;;;;18.30;98.10;;;;;;5086625;28;19908;-74
2022/10/24 14:10:12;;;;;;;;;;;18.30;98.10;;;;;;5107906;28;19928;-74
2022/10/24 14:12:39;;;;;;;;;;;18.40;98.10;;;;;;5108187;28;19969;-74
2022/10/24 14:15:06;;;;;;;;;;;18.40;98.10;;;;;;5115183;28;19908;-74
2022/10/24 14:17:33;;;;;;;;;;;18.30;98.00;;;;;;5111977;28;19969;-73
2022/10/24 14:20:19;;;;;;;;;;;18.30;98.00;;;;;;5103663;28;20263;-74
2022/10/24 14:22:45;;;;;;;;;;;18.40;98.00;;;;;;5112655;28;19912;-74
2022/10/24 14:25:21;;;;;;;;;;;18.30;97.90;;;;;;5126688;28;19908;-75
2022/10/24 14:27:48;;;;;;;;;;;18.30;97.90;;;;;;5131868;27;19916;-74
2022/10/24 14:30:19;;;;;;;;;;;18.30;97.90;;;;;;5109660;28;19920;-74
2022/10/24 14:32:45;;;;;;;;;;;18.30;97.90;;;;;;5131521;27;19981;-74
2022/10/24 14:35:12;;;;;;;;;;;18.30;97.90;;;;;;5136804;27;20262;-74
2022/10/24 14:37:39;;;;;;;;;;;18.20;97.90;;;;;;5136973;27;20285;-74
2022/10/24 14:40:06;;;;;;;;;;;18.30;97.90;;;;;;5113983;27;19991;-74
2022/10/24 14:42:33;;;;;;;;;;;18.30;97.90;;;;;;5118438;27;19919;-74
2022/10/24 14:44:59;;;;;;;;;;;18.30;97.90;;;;;;5111750;28;19919;-74
2022/10/24 14:47:27;;;;;;;;;;;18.30;97.90;;;;;;5115882;28;19908;-74
2022/10/24 14:49:54;;;;;;;;;;;18.30;98.00;;;;;;5096721;28;19973;-74
2022/10/24 14:52:20;;;;;;;;;;;18.30;97.90;;;;;;5097773;28;19908;-74
2022/10/24 14:54:52;;;;;;;;;;;18.30;98.00;;;;;;5115787;28;19907;-74
2022/10/24 14:57:19;;;;;;;;;;;18.30;98.00;;;;;;5097780;28;19912;-74
2022/10/24 14:59:46;;;;;;;;;;;18.30;98.00;;;;;;5096772;28;19916;-74
2022/10/24 15:02:23;;;;;;;;;;;18.30;98.00;;;;;;5115579;28;19928;-74
2022/10/24 15:04:50;;;;;;;;;;;18.30;98.00;;;;;;5097677;28;19914;-74
2022/10/24 15:07:26;;;;;;;;;;;18.40;98.00;;;;;;5115865;28;19907;-74
2022/10/24 15:09:53;;;;;;;;;;;18.40;98.00;;;;;;5109312;28;19995;-74
2022/10/24 15:12:37;;;;;;;;;;;18.40;98.00;;;;;;5111950;28;19914;-74
2022/10/24 15:15:18;;;;;;;;;;;18.40;98.00;;;;;;5097662;28;19915;-77
2022/10/24 15:17:51;;;;;;;;;;;18.40;98.00;;;;;;5109659;28;20467;-74
2022/10/24 15:20:20;;;;;;;;;;;18.50;98.00;;;;;;5106997;28;19908;-73
2022/10/24 15:22:48;;;;;;;;;;;18.50;98.00;;;;;;5114805;28;19908;-73
2022/10/24 15:25:25;;;;;;;;;;;18.50;98.00;;;;;;5097203;28;19912;-73
2022/10/24 15:27:58;;;;;;;;;;;18.40;98.00;;;;;;5096509;28;19951;-74
2022/10/24 15:30:31;;;;;;;;;;;18.40;98.00;;;;;;5115175;28;19916;-74
2022/10/24 15:32:58;;;;;;;;;;;18.40;98.00;;;;;;5115225;28;20361;-74
2022/10/24 15:35:25;;;;;;;;;;;18.40;98.00;;;;;;5097381;28;19908;-73
2022/10/24 15:38:11;;;;;;;;;;;18.40;98.00;;;;;;5102680;28;19934;-73
2022/10/24 15:40:38;;;;;;;;;;;18.50;98.10;;;;;;5096558;28;19908;-73
2022/10/24 15:43:04;;;;;;;;;;;18.40;98.00;;;;;;5096871;28;19914;-73
2022/10/24 15:45:31;;;;;;;;;;;18.50;98.10;;;;;;5115174;28;20358;-74
2022/10/24 15:47:58;;;;;;;;;;;18.50;98.00;;;;;;5111850;28;19938;-74
2022/10/24 15:50:24;;;;;;;;;;;18.40;98.00;;;;;;5114341;28;19912;-74
2022/10/24 15:52:52;;;;;;;;;;;18.40;98.00;;;;;;5115191;28;19912;-74
2022/10/24 15:55:19;;;;;;;;;;;18.40;98.10;;;;;;5079629;28;20298;-73
2022/10/24 15:57:46;;;;;;;;;;;18.40;98.10;;;;;;5114406;28;19915;-73
2022/10/24 16:00:14;;;;;;;;;;;18.40;98.10;;;;;;5115638;27;19907;-73
2022/10/24 16:02:41;;;;;;;;;;;18.40;98.10;;;;;;5117231;27;20477;-74
2022/10/24 16:05:13;;;;;;;;;;;18.40;98.20;;;;;;5135672;27;19968;-74
2022/10/24 16:07:39;;;;;;;;;;;18.40;98.20;;;;;;5114756;27;19920;-73
2022/10/24 16:10:06;;;;;;;;;;;18.40;98.20;;;;;;5126524;27;19972;-74
2022/10/24 16:12:32;;;;;;;;;;;18.40;98.30;;;;;;5135080;27;19977;-74
2022/10/24 16:14:59;;;;;;;;;;;18.40;98.20;;;;;;5135419;27;19912;-74
2022/10/24 16:17:26;;;;;;;;;;;18.50;98.20;;;;;;5126456;27;19911;-74
2022/10/24 16:19:52;;;;;;;;;;;18.50;98.30;;;;;;5118339;27;20007;-74
2022/10/24 16:22:19;;;;;;;;;;;18.50;98.30;;;;;;5114577;28;20271;-74
2022/10/24 16:24:45;;;;;;;;;;;18.50;98.30;;;;;;5114727;28;19908;-74
2022/10/24 16:27:12;;;;;;;;;;;18.50;98.30;;;;;;5113515;28;19915;-74
2022/10/24 16:29:38;;;;;;;;;;;18.50;98.30;;;;;;5112965;28;20395;-74
2022/10/24 16:32:05;;;;;;;;;;;18.50;98.30;;;;;;5091771;28;19977;-73
2022/10/24 16:34:32;;;;;;;;;;;18.50;98.30;;;;;;5114008;28;19908;-73
2022/10/24 16:36:58;;;;;;;;;;;18.50;98.30;;;;;;5113657;28;20358;-74
2022/10/24 16:39:25;;;;;;;;;;;18.50;98.30;;;;;;5113641;28;19947;-74
2022/10/24 16:41:56;;;;;;;;;;;18.50;98.30;;;;;;5114231;28;19911;-74
2022/10/24 16:44:23;;;;;;;;;;;18.40;98.20;;;;;;5113966;28;19908;-74
2022/10/24 16:46:51;;;;;;;;;;;18.40;98.30;;;;;;5114129;28;20377;-74
2022/10/24 16:49:18;;;;;;;;;;;18.40;98.20;;;;;;5110357;28;19920;-74